Time;durP1;ratioP1;P1;durP2;ratioP2;P2;SDS_P1;SDS_P2;PMS_P1;PMS_P2;Temp;Humidity;BMP_temperature;BMP_pressure;BME280_temperature;BME280_humidity;BME280_pressure;Samples;Min_cycle;Max_cycle;Signal;HPM_P1;HPM_P2
2021/11/16 00:02:02;;;;;;;31.92;17.70;;;7.00;97.80;;;;;;4997020;28;20125;-62
2021/11/16 00:04:28;;;;;;;29.92;16.05;;;7.00;97.80;;;;;;5014260;28;20034;-62
2021/11/16 00:06:54;;;;;;;38.85;21.05;;;7.00;97.80;;;;;;4996836;28;20030;-62
2021/11/16 00:09:20;;;;;;;38.30;20.48;;;7.00;97.80;;;;;;5014311;28;20103;-62
2021/11/16 00:11:46;;;;;;;37.45;20.48;;;7.00;97.70;;;;;;5014320;28;20030;-62
2021/11/16 00:14:12;;;;;;;44.95;22.90;;;7.00;97.70;;;;;;5014649;28;20022;-62
2021/11/16 00:16:42;;;;;;;32.00;18.60;;;7.00;97.70;;;;;;5013660;28;20383;-62
2021/11/16 00:19:12;;;;;;;32.58;18.92;;;7.00;97.70;;;;;;5009257;28;20070;-62
2021/11/16 00:21:40;;;;;;;35.65;20.83;;;7.00;97.80;;;;;;5014314;28;20030;-62
2021/11/16 00:24:13;;;;;;;33.00;18.98;;;7.00;97.70;;;;;;5014184;28;20029;-62
2021/11/16 00:26:39;;;;;;;34.20;18.33;;;7.00;97.70;;;;;;5014277;28;20022;-62
2021/11/16 00:29:05;;;;;;;33.78;19.42;;;7.00;97.70;;;;;;5014171;28;20536;-62
2021/11/16 00:31:31;;;;;;;42.20;22.35;;;7.00;97.70;;;;;;4996571;28;20022;-61
2021/11/16 00:34:01;;;;;;;36.17;20.17;;;6.90;97.50;;;;;;5013985;28;20022;-62
2021/11/16 00:36:28;;;;;;;43.33;23.75;;;6.90;97.60;;;;;;4996460;28;20038;-61
2021/11/16 00:38:53;;;;;;;40.38;23.50;;;6.90;97.50;;;;;;5013974;28;20029;-61
2021/11/16 00:41:19;;;;;;;40.22;20.50;;;6.90;97.50;;;;;;5014032;28;20038;-62
2021/11/16 00:43:45;;;;;;;32.05;18.83;;;6.90;97.60;;;;;;5013626;28;20497;-62
2021/11/16 00:46:10;;;;;;;32.65;18.08;;;6.90;97.70;;;;;;5013886;28;20084;-61
2021/11/16 00:48:36;;;;;;;38.10;21.63;;;6.90;97.70;;;;;;5013781;28;20084;-62
2021/11/16 00:51:04;;;;;;;33.78;18.50;;;6.90;97.60;;;;;;4996121;28;20381;-61
2021/11/16 00:53:33;;;;;;;31.75;17.92;;;7.00;97.70;;;;;;5012340;28;20113;-62
2021/11/16 00:55:59;;;;;;;33.13;18.10;;;7.00;97.70;;;;;;5013674;28;20535;-61
2021/11/16 00:58:26;;;;;;;31.00;18.48;;;7.00;97.70;;;;;;4995473;28;20277;-62
2021/11/16 01:00:51;;;;;;;29.88;16.30;;;7.00;97.70;;;;;;5013629;28;20030;-62
2021/11/16 01:03:18;;;;;;;35.85;17.92;;;7.00;97.80;;;;;;5008591;28;20314;-62
2021/11/16 01:05:44;;;;;;;31.15;18.00;;;7.00;97.80;;;;;;4995475;28;20079;-62
2021/11/16 01:08:10;;;;;;;41.60;22.67;;;7.00;97.80;;;;;;5014041;28;20108;-62
2021/11/16 01:10:38;;;;;;;47.03;25.08;;;7.00;97.70;;;;;;5013392;28;20045;-62
2021/11/16 01:13:04;;;;;;;52.83;26.50;;;6.90;97.60;;;;;;5013253;28;20167;-62
2021/11/16 01:15:31;;;;;;;43.60;24.90;;;6.80;97.50;;;;;;5013302;28;20100;-62
2021/11/16 01:17:57;;;;;;;42.30;23.90;;;6.80;97.60;;;;;;4986014;28;20034;-61
2021/11/16 01:20:23;;;;;;;39.60;22.10;;;6.70;97.60;;;;;;4995484;28;20028;-62
2021/11/16 01:22:51;;;;;;;44.25;23.10;;;6.70;97.70;;;;;;5013206;28;20117;-62
2021/11/16 01:25:18;;;;;;;40.65;22.88;;;6.80;97.70;;;;;;5012818;28;20441;-61
2021/11/16 01:27:44;;;;;;;35.17;19.40;;;6.80;97.80;;;;;;5012950;28;20057;-62
2021/11/16 01:30:14;;;;;;;39.78;21.25;;;6.80;97.80;;;;;;5013017;28;20014;-61
2021/11/16 01:32:43;;;;;;;38.83;21.90;;;6.80;97.80;;;;;;4995926;28;20022;-62
2021/11/16 01:35:09;;;;;;;34.08;19.77;;;6.80;97.80;;;;;;5013195;28;20061;-62
2021/11/16 01:37:36;;;;;;;30.52;17.33;;;6.80;97.80;;;;;;5012840;28;20500;-62
2021/11/16 01:40:05;;;;;;;35.45;19.83;;;6.90;97.90;;;;;;5012902;28;20026;-62
2021/11/16 01:42:31;;;;;;;31.40;18.10;;;6.90;97.80;;;;;;5012770;28;20022;-62
2021/11/16 01:44:57;;;;;;;31.55;16.50;;;6.90;97.90;;;;;;5003664;28;20097;-62
2021/11/16 01:47:23;;;;;;;27.48;15.55;;;6.90;97.90;;;;;;4995351;28;20439;-61
2021/11/16 01:49:48;;;;;;;26.90;15.60;;;6.90;97.90;;;;;;5012743;28;20030;-62
2021/11/16 01:52:15;;;;;;;24.42;13.38;;;6.90;97.90;;;;;;5012592;28;20014;-61
2021/11/16 01:54:40;;;;;;;33.25;17.02;;;6.90;97.90;;;;;;4994953;28;20029;-62
2021/11/16 01:57:06;;;;;;;29.75;17.48;;;6.90;97.90;;;;;;5012863;28;20359;-62
2021/11/16 01:59:32;;;;;;;28.02;15.55;;;7.00;97.90;;;;;;5012631;28;20034;-62
2021/11/16 02:02:01;;;;;;;29.60;14.68;;;7.00;97.90;;;;;;5012647;28;20079;-61
2021/11/16 02:04:26;;;;;;;27.98;16.13;;;7.00;97.90;;;;;;5012420;28;20451;-62
2021/11/16 02:06:52;;;;;;;28.90;15.30;;;7.00;97.90;;;;;;5012461;28;20108;-62
2021/11/16 02:09:19;;;;;;;27.95;14.95;;;7.00;97.90;;;;;;5012026;28;20053;-62
2021/11/16 02:11:45;;;;;;;27.25;15.10;;;7.00;97.90;;;;;;5011834;28;20359;-62
2021/11/16 02:14:14;;;;;;;25.67;15.13;;;7.10;98.00;;;;;;5011733;28;20022;-62
2021/11/16 02:16:41;;;;;;;30.83;16.40;;;7.10;98.00;;;;;;4994173;28;20068;-61
2021/11/16 02:19:09;;;;;;;26.25;14.27;;;7.10;98.00;;;;;;5011565;28;20076;-62
2021/11/16 02:21:36;;;;;;;27.55;15.75;;;7.10;98.00;;;;;;5012402;28;20030;-62
2021/11/16 02:24:03;;;;;;;27.00;14.70;;;7.10;98.00;;;;;;5012240;28;20022;-62
2021/11/16 02:26:30;;;;;;;27.25;15.23;;;7.10;98.00;;;;;;5012118;28;20477;-62
2021/11/16 02:28:56;;;;;;;25.17;13.98;;;7.10;98.00;;;;;;5012297;28;20478;-61
2021/11/16 02:31:22;;;;;;;30.90;15.25;;;7.10;98.00;;;;;;5012278;28;20037;-62
2021/11/16 02:33:48;;;;;;;26.27;14.98;;;7.10;98.00;;;;;;4994552;28;20176;-62
2021/11/16 02:36:14;;;;;;;37.53;19.52;;;7.10;98.00;;;;;;5012189;28;20040;-62
2021/11/16 02:38:42;;;;;;;45.65;23.02;;;7.10;98.00;;;;;;4994330;28;20120;-61
2021/11/16 02:41:09;;;;;;;43.10;24.73;;;7.10;97.90;;;;;;5012139;28;20030;-62
2021/11/16 02:43:37;;;;;;;47.55;26.02;;;7.00;97.90;;;;;;5012007;28;20026;-62
2021/11/16 02:46:03;;;;;;;37.55;20.80;;;6.90;97.90;;;;;;5012038;28;20061;-62
2021/11/16 02:48:30;;;;;;;33.47;19.90;;;6.90;98.00;;;;;;5012061;28;20053;-62
2021/11/16 02:50:59;;;;;;;36.80;19.83;;;6.90;98.10;;;;;;5012062;28;20116;-61
2021/11/16 02:53:24;;;;;;;33.08;18.25;;;6.90;98.10;;;;;;4994223;28;20113;-61
2021/11/16 02:55:50;;;;;;;36.10;19.02;;;6.90;98.10;;;;;;5012071;28;20129;-62
2021/11/16 02:58:17;;;;;;;34.42;19.85;;;7.00;98.10;;;;;;4993105;28;20508;-61
2021/11/16 03:00:54;;;;;;;38.88;21.48;;;7.00;98.10;;;;;;5011878;28;20038;-61
2021/11/16 03:03:20;;;;;;;32.78;19.52;;;7.00;98.10;;;;;;5012106;28;20061;-61
2021/11/16 03:05:46;;;;;;;35.55;18.80;;;6.90;98.10;;;;;;5012086;28;20373;-61
2021/11/16 03:08:23;;;;;;;33.90;19.50;;;6.90;98.10;;;;;;5012252;28;20033;-62
2021/11/16 03:10:55;;;;;;;33.45;18.60;;;7.00;98.10;;;;;;5010934;28;20100;-62
2021/11/16 03:13:21;;;;;;;35.30;18.88;;;7.00;98.20;;;;;;5012536;28;20026;-62
2021/11/16 03:15:47;;;;;;;38.38;21.17;;;7.00;98.20;;;;;;5012170;28;20084;-61
2021/11/16 03:18:13;;;;;;;31.55;18.02;;;7.00;98.10;;;;;;5011665;28;20026;-62
2021/11/16 03:20:39;;;;;;;39.00;21.15;;;7.00;98.20;;;;;;5007938;28;20026;-62
2021/11/16 03:23:11;;;;;;;42.22;23.60;;;7.00;98.10;;;;;;5005100;28;20030;-61
2021/11/16 03:25:43;;;;;;;51.40;28.00;;;6.90;98.10;;;;;;5011692;28;20095;-62
2021/11/16 03:28:11;;;;;;;46.70;27.30;;;6.90;98.10;;;;;;4994084;28;20073;-61
2021/11/16 03:30:37;;;;;;;49.08;28.17;;;6.80;98.10;;;;;;5012990;28;20045;-62
2021/11/16 03:33:30;;;;;;;45.65;25.58;;;6.70;98.20;;;;;;5015259;28;20033;-62
2021/11/16 03:35:56;;;;;;;51.90;28.83;;;6.70;98.30;;;;;;5015294;28;20428;-62
2021/11/16 03:38:22;;;;;;;52.63;27.40;;;6.60;98.40;;;;;;5015031;28;20079;-62
2021/11/16 03:40:51;;;;;;;52.20;28.83;;;6.50;98.50;;;;;;5015130;28;20100;-62
2021/11/16 03:43:17;;;;;;;52.45;27.30;;;6.60;98.60;;;;;;5015108;28;20079;-61
2021/11/16 03:45:43;;;;;;;46.47;25.58;;;6.50;98.70;;;;;;5014715;28;20026;-61
2021/11/16 03:48:10;;;;;;;48.17;27.05;;;6.50;98.70;;;;;;4997029;28;20033;-61
2021/11/16 03:50:36;;;;;;;58.15;31.25;;;6.50;98.70;;;;;;4997303;28;20022;-61
2021/11/16 03:53:03;;;;;;;51.35;28.38;;;6.50;98.60;;;;;;5014840;28;20026;-61
2021/11/16 03:55:34;;;;;;;51.42;28.77;;;6.50;98.60;;;;;;5014501;28;20029;-62
2021/11/16 03:58:00;;;;;;;54.03;29.67;;;6.40;98.70;;;;;;5014688;28;20061;-61
2021/11/16 04:00:49;;;;;;;59.17;31.48;;;6.30;98.90;;;;;;5014552;28;20068;-62
2021/11/16 04:03:17;;;;;;;53.60;31.10;;;6.30;99.00;;;;;;5014683;28;20022;-62
2021/11/16 04:05:43;;;;;;;54.17;28.42;;;6.30;99.20;;;;;;5014498;28;20041;-62
2021/11/16 04:08:10;;;;;;;51.45;28.17;;;6.30;99.30;;;;;;5014833;28;20022;-62
2021/11/16 04:10:36;;;;;;;52.03;28.00;;;6.30;99.30;;;;;;4996517;28;20038;-62
2021/11/16 04:13:03;;;;;;;41.13;22.98;;;6.40;99.30;;;;;;5014462;28;20026;-62
2021/11/16 04:15:30;;;;;;;44.08;23.92;;;6.40;99.30;;;;;;5014429;28;20068;-62
2021/11/16 04:17:57;;;;;;;44.88;24.98;;;6.40;99.20;;;;;;5014299;28;20048;-62
2021/11/16 04:20:27;;;;;;;47.75;26.30;;;6.40;99.20;;;;;;5014103;28;20502;-62
2021/11/16 04:22:56;;;;;;;53.63;28.45;;;6.40;99.10;;;;;;5014644;28;20105;-62
2021/11/16 04:25:23;;;;;;;47.65;27.05;;;6.40;99.10;;;;;;5013960;28;20063;-61
2021/11/16 04:27:49;;;;;;;45.00;24.70;;;6.40;99.10;;;;;;5014000;28;20034;-62
2021/11/16 04:30:18;;;;;;;39.35;21.65;;;6.40;99.10;;;;;;5013868;28;20448;-62
2021/11/16 04:32:44;;;;;;;40.42;21.17;;;6.50;99.20;;;;;;5014375;28;20030;-61
2021/11/16 04:35:11;;;;;;;35.70;19.77;;;6.50;99.10;;;;;;4996891;28;20032;-61
2021/11/16 04:37:40;;;;;;;31.58;18.67;;;6.60;99.20;;;;;;5014011;28;20545;-61
2021/11/16 04:40:10;;;;;;;31.67;18.23;;;6.60;99.10;;;;;;5013254;28;20389;-62
2021/11/16 04:42:37;;;;;;;30.77;16.23;;;6.60;99.10;;;;;;5013712;28;20056;-62
2021/11/16 04:45:05;;;;;;;30.40;16.95;;;6.60;99.10;;;;;;5013699;28;20033;-61
2021/11/16 04:47:37;;;;;;;27.48;15.13;;;6.70;99.10;;;;;;5014163;28;20033;-61
2021/11/16 04:50:12;;;;;;;26.65;14.88;;;6.70;99.00;;;;;;5013845;28;20529;-62
2021/11/16 04:52:54;;;;;;;26.17;13.82;;;6.80;99.00;;;;;;5013552;28;20026;-62
2021/11/16 04:55:31;;;;;;;25.40;14.95;;;6.80;99.00;;;;;;5013679;28;20088;-62
2021/11/16 05:03:24;;;;;;;26.77;14.95;;;6.80;99.00;;;;;;5013702;28;20032;-62
2021/11/16 05:05:50;;;;;;;29.52;15.43;;;6.80;99.00;;;;;;5013470;28;20033;-62
2021/11/16 05:08:16;;;;;;;25.20;14.70;;;6.80;99.00;;;;;;5013485;28;20040;-61
2021/11/16 05:10:42;;;;;;;27.27;15.52;;;6.90;99.00;;;;;;5013267;28;20040;-61
2021/11/16 05:13:07;;;;;;;29.83;16.25;;;6.90;99.00;;;;;;5013359;28;20103;-62
2021/11/16 05:15:34;;;;;;;29.88;16.10;;;6.90;99.00;;;;;;5013259;28;20065;-62
2021/11/16 05:18:00;;;;;;;30.10;16.15;;;6.90;99.00;;;;;;5013086;28;20448;-61
2021/11/16 05:20:26;;;;;;;30.08;16.75;;;6.90;99.00;;;;;;5006789;28;20479;-61
2021/11/16 05:22:53;;;;;;;30.30;16.92;;;6.90;98.90;;;;;;5013191;28;20037;-61
2021/11/16 05:25:34;;;;;;;30.05;16.08;;;6.90;98.90;;;;;;5013426;28;20025;-61
2021/11/16 05:28:02;;;;;;;31.73;17.15;;;7.00;98.90;;;;;;4995286;28;20018;-62
2021/11/16 05:30:29;;;;;;;26.58;16.08;;;6.90;98.90;;;;;;5012986;28;20490;-62
2021/11/16 05:32:56;;;;;;;27.48;15.95;;;6.90;98.90;;;;;;5013111;28;20060;-62
2021/11/16 05:35:21;;;;;;;32.47;16.13;;;7.00;98.90;;;;;;4995433;28;20363;-61
2021/11/16 05:37:47;;;;;;;29.98;17.05;;;7.00;98.90;;;;;;5012896;28;20045;-61
2021/11/16 05:40:25;;;;;;;31.17;16.92;;;7.00;98.80;;;;;;5012788;28;20038;-62
2021/11/16 05:42:51;;;;;;;28.30;15.95;;;7.00;98.80;;;;;;4995149;28;20482;-62
2021/11/16 05:45:16;;;;;;;28.52;16.20;;;7.00;98.90;;;;;;5012814;28;20096;-62
2021/11/16 05:47:42;;;;;;;29.25;16.10;;;7.00;98.90;;;;;;5012776;28;20084;-62
2021/11/16 05:50:10;;;;;;;32.05;16.30;;;7.00;98.90;;;;;;4995281;28;20588;-62
2021/11/16 05:52:36;;;;;;;29.20;15.82;;;7.00;98.90;;;;;;5012390;28;20025;-62
2021/11/16 05:55:02;;;;;;;28.98;16.13;;;7.00;98.90;;;;;;5012746;28;20022;-62
2021/11/16 05:57:28;;;;;;;30.20;16.17;;;7.00;98.90;;;;;;5012509;28;20390;-62
2021/11/16 06:00:21;;;;;;;32.90;17.00;;;7.00;98.90;;;;;;5012575;28;20037;-61
2021/11/16 06:02:44;;;;;;;31.20;16.45;;;7.00;98.80;;;;;;4996128;28;20060;-61
2021/11/16 06:05:09;;;;;;;29.42;16.83;;;6.90;98.80;;;;;;5012399;28;20363;-62
2021/11/16 06:07:35;;;;;;;27.30;15.00;;;7.00;98.90;;;;;;5012486;28;20493;-61
2021/11/16 06:10:02;;;;;;;30.05;16.27;;;7.00;98.90;;;;;;5012159;28;20124;-62
2021/11/16 06:12:27;;;;;;;30.48;16.30;;;7.00;98.80;;;;;;5012215;28;20053;-62
2021/11/16 06:14:53;;;;;;;30.38;16.25;;;7.00;98.80;;;;;;5012474;28;20454;-62
2021/11/16 06:17:20;;;;;;;29.42;16.90;;;7.00;98.80;;;;;;5012244;28;20071;-62
2021/11/16 06:20:09;;;;;;;;;;;;;;;;;;;;;
2021/11/16 06:22:35;;;;;;;31.45;16.20;;;6.90;98.80;;;;;;5007517;28;20041;-61
2021/11/16 06:25:01;;;;;;;34.92;18.52;;;7.00;98.80;;;;;;4994673;28;20396;-62
2021/11/16 06:27:26;;;;;;;31.27;16.25;;;6.90;98.80;;;;;;5012197;28;20040;-61
2021/11/16 06:29:52;;;;;;;30.80;16.77;;;6.90;98.80;;;;;;5012518;28;20038;-62
2021/11/16 06:32:17;;;;;;;32.25;17.42;;;6.90;98.80;;;;;;5012211;28;20026;-62
2021/11/16 06:34:43;;;;;;;35.28;18.48;;;6.90;98.80;;;;;;5012178;28;20026;-62
2021/11/16 06:37:09;;;;;;;34.03;17.25;;;6.90;99.10;;;;;;4994952;28;20057;-61
2021/11/16 06:39:37;;;;;;;33.50;17.55;;;6.90;98.90;;;;;;5012124;28;20034;-61
2021/11/16 06:42:03;;;;;;;32.80;17.60;;;6.90;98.90;;;;;;5012473;28;20417;-62
2021/11/16 06:44:29;;;;;;;27.63;15.63;;;6.90;98.90;;;;;;5011889;28;20485;-62
2021/11/16 06:46:55;;;;;;;33.90;16.98;;;6.90;98.90;;;;;;4994308;28;20076;-61
2021/11/16 06:49:21;;;;;;;33.15;17.33;;;6.90;98.90;;;;;;5012007;28;20075;-61
2021/11/16 06:51:49;;;;;;;32.70;17.20;;;6.90;98.90;;;;;;5012113;28;20061;-61
2021/11/16 06:54:19;;;;;;;36.15;18.55;;;6.90;98.90;;;;;;5011807;28;20028;-62
2021/11/16 06:56:47;;;;;;;40.72;19.95;;;6.90;98.90;;;;;;5011231;28;20467;-61
2021/11/16 07:02:02;;;;;;;32.28;16.90;;;6.80;98.90;;;;;;5001817;28;20104;-61
2021/11/16 07:04:39;;;;;;;30.58;16.42;;;6.80;99.00;;;;;;5012889;28;20470;-62
2021/11/16 07:07:06;;;;;;;31.05;16.73;;;6.90;99.00;;;;;;5012880;28;20405;-62
2021/11/16 07:09:35;;;;;;;31.27;16.95;;;6.80;99.00;;;;;;5013890;28;20548;-61
2021/11/16 07:12:01;;;;;;;32.43;16.03;;;6.80;99.00;;;;;;5014441;28;20026;-62
2021/11/16 07:14:36;;;;;;;29.88;16.40;;;6.80;99.00;;;;;;5010817;28;20030;-61
2021/11/16 07:17:39;;;;;;;29.92;16.65;;;6.90;99.10;;;;;;5010838;28;20049;-61
2021/11/16 07:20:06;;;;;;;29.85;15.35;;;6.90;99.10;;;;;;5010906;28;20564;-61
2021/11/16 07:22:33;;;;;;;31.98;15.70;;;6.80;99.10;;;;;;5011292;28;20018;-62
2021/11/16 07:25:08;;;;;;;30.13;14.77;;;6.80;99.10;;;;;;5012855;28;20034;-62
2021/11/16 07:27:46;;;;;;;29.52;16.85;;;6.80;99.10;;;;;;5013116;28;20101;-62
2021/11/16 07:30:16;;;;;;;28.35;15.43;;;6.80;99.10;;;;;;4994657;28;20022;-62
2021/11/16 07:32:45;;;;;;;29.45;14.88;;;6.80;99.10;;;;;;5011224;28;20033;-62
2021/11/16 07:35:15;;;;;;;30.52;15.23;;;6.80;99.20;;;;;;5010152;28;20386;-62
2021/11/16 07:37:41;;;;;;;27.88;14.38;;;6.80;99.20;;;;;;5010185;28;20034;-62
2021/11/16 07:40:27;;;;;;;33.35;16.38;;;6.80;99.20;;;;;;5009972;28;20037;-62
2021/11/16 07:42:59;;;;;;;26.35;13.73;;;6.90;99.20;;;;;;5010116;28;20017;-62
2021/11/16 07:45:40;;;;;;;31.65;14.88;;;6.90;99.20;;;;;;4992365;28;20038;-62
2021/11/16 07:48:10;;;;;;;27.42;14.88;;;6.90;99.20;;;;;;5009318;28;20030;-62
2021/11/16 07:50:43;;;;;;;27.25;14.65;;;6.90;99.20;;;;;;5009390;28;20029;-61
2021/11/16 07:53:37;;;;;;;28.45;15.07;;;6.90;99.20;;;;;;5009301;28;20021;-62
2021/11/16 07:56:11;;;;;;;27.35;14.70;;;6.90;99.20;;;;;;5010027;28;20045;-62
2021/11/16 07:58:54;;;;;;;30.58;15.15;;;6.90;99.30;;;;;;5009845;28;20026;-62
2021/11/16 08:02:07;;;;;;;32.25;15.00;;;6.90;99.30;;;;;;5011682;28;20033;-63
2021/11/16 08:04:42;;;;;;;28.02;14.45;;;6.90;99.30;;;;;;4995231;28;20041;-62
2021/11/16 08:07:29;;;;;;;25.70;14.13;;;6.80;99.30;;;;;;5012078;28;20076;-61
2021/11/16 08:09:57;;;;;;;27.40;14.38;;;6.90;99.40;;;;;;5012426;28;20080;-62
2021/11/16 08:12:32;;;;;;;28.67;15.23;;;6.90;99.40;;;;;;5012790;28;20022;-61
2021/11/16 08:15:12;;;;;;;26.35;14.07;;;6.90;99.40;;;;;;5013513;28;20477;-62
2021/11/16 08:18:11;;;;;;;;;;;;;;;;;;;;;
2021/11/16 08:24:51;;;;;;;25.90;14.00;;;6.90;99.50;;;;;;4925720;29;20074;-61
2021/11/16 08:28:06;;;;;;;29.55;14.80;;;6.90;99.40;;;;;;4926375;29;20066;-61
2021/11/16 08:30:37;;;;;;;33.70;15.55;;;6.90;99.50;;;;;;4928965;29;20070;-61
2021/11/16 08:33:09;;;;;;;30.25;16.30;;;6.80;99.60;;;;;;4933556;29;20035;-61
2021/11/16 08:35:35;;;;;;;28.95;15.30;;;6.80;99.60;;;;;;4961924;28;20039;-61
2021/11/16 08:38:02;;;;;;;30.88;15.07;;;6.90;99.60;;;;;;4993835;28;20023;-61
2021/11/16 08:40:32;;;;;;;30.95;15.23;;;6.90;99.60;;;;;;4992554;28;20029;-62
2021/11/16 08:43:00;;;;;;;;;;;6.90;99.60;;;;;;4994700;28;20027;-61
2021/11/16 08:45:31;;;;;;;29.77;14.60;;;6.80;99.60;;;;;;4993953;28;19913;-61
2021/11/16 08:48:11;;;;;;;31.75;16.35;;;6.80;99.70;;;;;;5013791;28;20478;-61
2021/11/16 08:51:47;;;;;;;33.85;17.20;;;6.80;99.70;;;;;;5013543;28;20029;-62
2021/11/16 08:54:12;;;;;;;29.27;14.88;;;6.90;99.60;;;;;;4999999;28;20109;-61
2021/11/16 08:56:41;;;;;;;29.50;15.20;;;6.90;99.80;;;;;;5013569;28;20101;-62
2021/11/16 08:59:16;;;;;;;29.30;15.07;;;6.90;99.70;;;;;;4995953;28;20057;-61
2021/11/16 09:15:48;;;;;;;27.52;13.82;;;6.90;99.90;;;;;;4825511;29;20045;-61
2021/11/16 09:18:36;;;;;;;25.58;13.38;;;6.90;99.90;;;;;;4967914;28;20046;-61
2021/11/16 09:21:04;;;;;;;25.85;12.82;;;6.90;99.90;;;;;;4993487;28;20093;-61
2021/11/16 09:23:35;;;;;;;27.17;13.90;;;6.90;99.90;;;;;;4993510;28;20034;-61
2021/11/16 09:26:09;;;;;;;28.58;15.00;;;7.00;99.90;;;;;;4993196;28;20105;-61
2021/11/16 09:28:35;;;;;;;29.17;15.77;;;7.00;99.90;;;;;;4991816;28;20026;-62
2021/11/16 09:31:16;;;;;;;30.98;15.40;;;7.00;99.90;;;;;;4993335;28;20019;-61
2021/11/16 09:33:42;;;;;;;33.47;16.55;;;7.00;99.90;;;;;;4993416;28;20077;-62
2021/11/16 09:36:08;;;;;;;30.95;15.13;;;7.00;99.90;;;;;;4993219;28;20049;-62
2021/11/16 09:38:42;;;;;;;32.58;16.00;;;7.00;99.90;;;;;;4993287;28;20081;-61
2021/11/16 09:41:13;;;;;;;29.98;15.27;;;7.00;99.90;;;;;;4993401;28;20026;-61
2021/11/16 09:43:38;;;;;;;28.13;15.05;;;7.00;99.90;;;;;;4993268;28;20057;-61
2021/11/16 09:46:10;;;;;;;31.67;16.08;;;7.00;99.90;;;;;;4992906;28;20368;-62
2021/11/16 09:48:38;;;;;;;31.73;16.45;;;7.00;99.90;;;;;;4993265;28;20105;-62
2021/11/16 09:51:13;;;;;;;27.58;14.90;;;7.00;99.90;;;;;;4993361;28;20057;-62
2021/11/16 09:53:38;;;;;;;31.00;15.20;;;7.00;99.90;;;;;;4991212;28;20383;-61
2021/11/16 09:56:16;;;;;;;30.15;15.20;;;7.00;99.90;;;;;;4992931;28;20466;-62
2021/11/16 09:58:44;;;;;;;29.95;15.35;;;7.10;99.90;;;;;;4975702;28;20038;-62
2021/11/16 10:01:18;;;;;;;30.08;15.55;;;7.00;99.90;;;;;;4993049;28;20050;-62
2021/11/16 10:03:44;;;;;;;31.77;15.25;;;7.00;99.90;;;;;;4991261;28;20049;-62
2021/11/16 10:06:24;;;;;;;28.15;15.27;;;7.10;99.90;;;;;;4992702;28;20414;-62
2021/11/16 10:09:18;;;;;;;29.88;14.43;;;7.00;99.90;;;;;;4991315;28;20026;-61
2021/11/16 10:11:44;;;;;;;28.40;14.02;;;7.10;99.90;;;;;;4981976;28;20057;-62
2021/11/16 10:14:14;;;;;;;30.33;14.63;;;7.00;99.90;;;;;;4992836;28;20034;-62
2021/11/16 10:17:08;;;;;;;30.98;16.38;;;7.00;99.90;;;;;;4973349;28;20032;-62
2021/11/16 10:19:34;;;;;;;30.92;16.13;;;7.10;99.90;;;;;;4974337;28;20569;-62
2021/11/16 10:22:00;;;;;;;29.70;15.13;;;7.00;99.90;;;;;;4992345;28;20113;-62
2021/11/16 10:24:33;;;;;;;33.58;17.58;;;7.00;99.90;;;;;;4974942;28;20026;-61
2021/11/16 10:27:02;;;;;;;34.35;17.00;;;7.10;99.90;;;;;;4990370;28;20066;-62
2021/11/16 10:29:30;;;;;;;31.87;14.90;;;7.10;99.90;;;;;;4992521;28;20073;-62
2021/11/16 10:32:29;;;;;;;;;;;;;;;;;;;;;
2021/11/16 10:35:06;;;;;;;30.23;15.38;;;7.10;99.90;;;;;;4992518;28;20036;-61
2021/11/16 10:37:48;;;;;;;29.25;14.48;;;7.10;99.90;;;;;;4992464;28;20085;-61
2021/11/16 10:40:14;;;;;;;31.70;15.25;;;7.10;99.90;;;;;;4995557;28;22108;-62
2021/11/16 10:42:46;;;;;;;31.08;14.57;;;7.10;99.90;;;;;;4996354;28;20117;-62
2021/11/16 10:45:17;;;;;;;29.05;15.73;;;7.10;99.90;;;;;;4996405;28;20035;-62
2021/11/16 10:47:45;;;;;;;33.97;15.48;;;7.10;99.90;;;;;;4996344;28;20035;-62
2021/11/16 10:50:12;;;;;;;27.35;13.95;;;7.10;99.90;;;;;;4996453;28;20069;-61
2021/11/16 10:52:38;;;;;;;31.02;13.75;;;7.10;99.90;;;;;;4975576;28;20030;-62
2021/11/16 10:55:06;;;;;;;29.63;14.75;;;7.10;99.90;;;;;;4994685;28;20042;-62
2021/11/16 10:57:54;;;;;;;30.83;14.48;;;7.10;99.90;;;;;;4994474;28;20486;-62
2021/11/16 11:00:37;;;;;;;33.65;16.70;;;7.20;99.90;;;;;;4994439;28;20438;-61
2021/11/16 11:03:15;;;;;;;37.55;17.35;;;7.20;99.90;;;;;;4992870;28;20109;-62
2021/11/16 11:05:43;;;;;;;36.92;18.13;;;7.20;99.90;;;;;;4992633;28;20034;-61
2021/11/16 11:08:08;;;;;;;34.83;17.75;;;7.10;99.90;;;;;;4995071;28;20018;-62
2021/11/16 11:10:43;;;;;;;35.55;17.08;;;7.10;99.90;;;;;;5005573;28;20046;-62
2021/11/16 11:13:21;;;;;;;39.50;19.30;;;7.20;99.90;;;;;;5015582;28;20018;-62
2021/11/16 11:15:48;;;;;;;44.45;19.85;;;7.20;99.90;;;;;;5015686;28;20034;-61
2021/11/16 11:18:28;;;;;;;38.65;19.75;;;7.20;99.90;;;;;;5015457;28;20018;-61
2021/11/16 11:20:54;;;;;;;40.13;19.50;;;7.10;99.90;;;;;;5009866;28;20426;-61
2021/11/16 11:23:32;;;;;;;31.58;17.55;;;7.10;99.90;;;;;;5015127;28;20478;-61
2021/11/16 11:27:09;;;;;;;33.60;17.27;;;7.10;99.90;;;;;;5006205;28;20344;-62
2021/11/16 11:29:38;;;;;;;31.77;15.65;;;7.10;99.90;;;;;;4991551;28;20038;-62
2021/11/16 11:35:45;;;;;;;;;;;;;;;;;;;;;
2021/11/16 11:38:14;;;;;;;28.93;15.47;;;7.10;99.90;;;;;;5011754;28;20044;-62
2021/11/16 11:40:40;;;;;;;33.58;16.75;;;7.10;99.90;;;;;;5013664;28;20022;-62
2021/11/16 11:43:15;;;;;;;33.72;17.10;;;7.10;99.90;;;;;;5015104;28;20022;-62
2021/11/16 11:45:42;;;;;;;31.20;15.32;;;7.10;99.90;;;;;;5014851;28;20080;-62
2021/11/16 11:48:28;;;;;;;32.15;15.95;;;7.10;99.90;;;;;;5014622;28;20034;-62
2021/11/16 11:51:11;;;;;;;32.60;16.58;;;7.10;99.90;;;;;;5014331;28;20104;-62
2021/11/16 11:53:37;;;;;;;30.00;15.80;;;7.10;99.90;;;;;;5013595;28;20021;-62
2021/11/16 11:56:13;;;;;;;31.63;14.90;;;7.10;99.90;;;;;;5013387;28;20379;-62
2021/11/16 11:59:04;;;;;;;30.48;15.45;;;7.20;99.90;;;;;;5013273;28;20036;-62
2021/11/16 12:01:30;;;;;;;26.35;13.77;;;7.10;99.90;;;;;;4996880;28;20036;-62
2021/11/16 12:03:58;;;;;;;29.45;14.07;;;7.10;99.90;;;;;;5011439;28;20026;-62
2021/11/16 12:06:24;;;;;;;27.77;14.80;;;7.10;99.90;;;;;;4994763;28;20034;-62
2021/11/16 12:08:55;;;;;;;30.55;15.13;;;7.10;99.90;;;;;;5010450;28;20481;-62
2021/11/16 12:11:21;;;;;;;33.17;16.05;;;7.20;99.90;;;;;;5012690;28;20049;-62
2021/11/16 12:13:48;;;;;;;32.65;16.80;;;7.10;99.90;;;;;;5013376;28;20541;-62
2021/11/16 12:16:29;;;;;;;34.85;16.77;;;7.20;99.90;;;;;;5009771;28;20538;-62
2021/11/16 12:19:07;;;;;;;33.88;17.95;;;7.10;99.90;;;;;;5011150;28;20017;-62
2021/11/16 12:22:29;;;;;;;32.03;17.23;;;7.20;99.90;;;;;;4994498;28;20026;-62
2021/11/16 12:25:17;;;;;;;33.30;16.48;;;7.10;99.90;;;;;;5009938;28;20037;-62
2021/11/16 12:27:43;;;;;;;30.58;15.77;;;7.10;99.90;;;;;;4994610;28;20224;-62
2021/11/16 12:30:10;;;;;;;30.33;15.35;;;7.00;99.90;;;;;;5010058;28;20033;-62
2021/11/16 12:32:45;;;;;;;31.30;15.52;;;7.10;99.90;;;;;;5009089;28;20030;-62
2021/11/16 12:35:12;;;;;;;31.27;15.48;;;7.10;99.90;;;;;;5009007;28;20406;-62
2021/11/16 12:37:53;;;;;;;26.60;13.85;;;7.10;99.90;;;;;;5007935;28;20033;-62
2021/11/16 12:40:36;;;;;;;35.78;17.08;;;7.10;99.90;;;;;;5011170;28;20065;-62
2021/11/16 12:43:46;;;;;;;30.40;15.98;;;7.10;99.90;;;;;;5009278;28;20694;-62
2021/11/16 12:46:21;;;;;;;29.85;15.30;;;7.10;99.80;;;;;;4972343;28;20499;-62
2021/11/16 12:48:54;;;;;;;30.25;16.27;;;7.10;99.90;;;;;;4994589;28;20106;-62
2021/11/16 12:51:20;;;;;;;28.35;14.55;;;7.10;99.90;;;;;;5013349;28;20033;-62
2021/11/16 12:54:01;;;;;;;33.08;16.67;;;7.10;99.90;;;;;;5013796;28;20034;-61
2021/11/16 12:56:40;;;;;;;32.45;16.48;;;7.10;99.80;;;;;;5013926;28;20041;-61
2021/11/16 12:59:06;;;;;;;29.40;15.52;;;7.10;99.70;;;;;;5013843;28;20026;-61
2021/11/16 13:02:02;;;;;;;27.02;14.43;;;7.10;99.80;;;;;;5012787;28;20117;-62
2021/11/16 13:04:43;;;;;;;26.92;13.55;;;7.10;99.70;;;;;;5013623;28;20034;-62
2021/11/16 13:07:19;;;;;;;26.02;13.95;;;7.10;99.70;;;;;;5007022;28;20394;-62
2021/11/16 13:09:51;;;;;;;25.90;13.85;;;7.10;99.70;;;;;;5012870;28;20112;-62
2021/11/16 13:12:35;;;;;;;26.63;13.07;;;7.10;99.60;;;;;;5013352;28;20037;-62
2021/11/16 13:15:10;;;;;;;27.30;13.25;;;7.10;99.50;;;;;;5013352;28;20021;-62
2021/11/16 13:17:42;;;;;;;22.33;11.88;;;7.10;99.50;;;;;;5013149;28;20499;-61
2021/11/16 13:20:13;;;;;;;22.90;11.20;;;7.10;99.40;;;;;;5011736;28;20101;-61
2021/11/16 13:22:50;;;;;;;23.00;12.40;;;7.10;99.40;;;;;;5012897;28;20435;-62
2021/11/16 13:25:48;;;;;;;22.05;11.20;;;7.10;99.30;;;;;;5013173;28;20052;-61
2021/11/16 13:31:09;;;;;;;25.23;12.15;;;7.10;99.10;;;;;;4999898;28;20383;-62
2021/11/16 13:33:48;;;;;;;24.77;13.35;;;7.10;99.20;;;;;;5013008;28;20025;-61
2021/11/16 13:36:19;;;;;;;24.77;13.23;;;7.10;99.10;;;;;;5009473;28;20026;-61